MMML/MXL METAR and TAF weather

Enter ICAO airport designator
Station Type Date Time Source
MMML METAR 2019/12/08 06:53 UTC NOAA

MMML 080653Z 00000KT 10SM BKN100 OVC200 14/13 A3007 RMK 8/027


Station Type Date Time Source
MMML Decoded METAR 2019/12/08 06:53 UTC NOAA

Mexicali International Airport , Mexico (MMML) 32-38N 117-00W
Dec 08, 2019 - 01:53 AM EST / 2019.12.08 0653 UTC
Wind: Calm:0
Visibility: 10 mile(s):0
Sky conditions: overcast
Temperature: 57 F (14 C)
Dew Point: 55 F (13 C)
Relative Humidity: 93%
Pressure (altimeter): 30.07 in. Hg (1018 hPa)
ob: MMML 080653Z 00000KT 10SM BKN100 OVC200 14/13 A3007 RMK 8/027
cycle: 7

Station Type Date Time Source
MMML TAF 2019/12/08 06:25 UTC NOAA

TAF MMML 080316Z 0806/0906 30005KT P6SM SCT040 BKN120
FM081800 34010KT P6SM SCT040 BKN080 BKN250
FM090500 32005KT P6SM SCT040 SCT100

Example: see airport list